Aérodrome :
LOGIN :

S'inscrire | Disclaimer

   EN    FR    IT 

 










Légende :    VFR   VFR Marginal   IFR   IFR Intensif   IFR Très Intensif
Visi : 
Plafond : 
>= 8 km
>= 3000ft
5 à 8 km
1000 à 3000 ft
1500m à 5 km
500 à 1000 ft
800 à 1500m
200 à 500 ft
< 800m
< 200 ft
Symboles :   Orages  Brouillard  Fortes neiges  Fortes précipitations  Vent > 20 kt
SIGMETs :   Divers  Orages  Givrage  Turbulence  Onde Orograph.  Cendres Volcan.







- Altitude de l'aérodrome : 3 ft
- Code IATA : DHR


EHKD - Den Helder De Kooy

DERNIER METAR :
  • 221455Z AUTO 18016KT 5000 BR OVC006 M00/M01 Q0999 YLO 18014KT 4500 BR SCT006 BKN007 TEMPO 3000 -SN

METARs EXPIRÉS :
  • 221437Z AUTO 18015KT 5000 -SN BKN006 OVC007 M00/M01 Q0999 YLO 18014KT 4500 BR SCT006 BKN007 TEMPO 3000 -SN
  • 221433Z AUTO 18014KT 3200 R21/P3000U -SN BKN006 OVC007 M00/M01 Q1000 YLO 18013KT 4000 BR SCT006 BKN007 TEMPO 2000 -SN
  • 221416Z AUTO 18014KT 2700 R21/P3000N -FZRA -SN SCT006 OVC007 M00/M01 Q1000 YLO 18013KT 4000 BR SCT006 BKN007 TEMPO 2000 -SN
  • 221402Z AUTO 18014KT 3800 -SG BKN007 OVC008 M00/M01 Q1000 GRN 18013KT 4000 BR SCT006 BKN007 TEMPO 2000 -SN
  • 221341Z AUTO 18014KT 4300 -FZRA -SN OVC007 M00/M01 Q1000 GRN 18013KT 4000 BR SCT006 BKN007 TEMPO 2000 -SN
  • 221336Z AUTO 18015KT 4600 -FZRA -SN OVC007 M00/M01 Q1000 GRN 18015KT 4000 BR SCT006 BKN007 TEMPO 2000 -SN
  • 221327Z AUTO 18015KT 4800 -FZRA -SN OVC006 M00/M01 Q1000 YLO 18015KT 4000 BR SCT006 BKN007
  • 221311Z AUTO 18016KT 5000 -FZRA -SN OVC006 M01/M01 Q1000 YLO 18016KT 3000 -SN BKN006 TEMPO 2000 SN
  • 221257Z AUTO 18016KT 3100 R21/P3000U -SN BKN006 OVC007 M01/M01 Q1001 YLO 18016KT 3000 -SN BKN006 TEMPO 2000 SN
  • 221255Z AUTO 18015KT 2700 R21/2700U -SN BKN006 OVC007 M01/M01 Q1001 YLO 18016KT 3000 -SN BKN006
  • 221235Z AUTO 18015KT 2800 R21/2800N -SN SCT006 OVC007 M01/M01 Q1001 YLO 17015KT 4000 -SN SCT010 OVC015 TEMPO 1200 SN SCT003 BKN010
  • 221225Z AUTO 18016KT 2800 R21/2800U -SN FEW006 BKN008 OVC009 M01/M01 Q1001 YLO 17015KT 4000 -SN SCT010 OVC015 TEMPO 1200 SN SCT003 BKN010

TAF COR TAF EHKD
Valide du 22 à 14h jusqu'au 23 à 02h UTC


221422Z 2214/2302 18015KT 4500 BR FEW005 OVC007
TEMPO 2214/2302 2000 BR SCT004 OVC006
PROB30
TEMPO 2300/2302 0800 FZFG OVC002
Pas de NOTAMs connus pour ce terrain.



MET'MAP, la Météo Aéronautique d'un coup d'oeil ! - Copyright ORBIFLY Décembre 2007 - Disclaimer

ORBIFLY MET'MAP TEAM :

Programmation & Développement : Alexandra Zaïnal
Conception & Développement : Baudouin d'Aumeries
Co-Programmation & Développement : Marc-Olivier Méhu
Soutien technique & logistique : Manuel Goepfert

Contact : metmap@orbifly.com




SOURCES & CREDITS :

   NOAA